Orbital elements of GLOBALSTAR M037
| Launched | 14 March 1999 |
| Flight ended | – |
| Launch site | Tyuratam Missile and Space Center, Kazakhstan (Also known as Baikonur Cosmodrome) |
| Owner | Globalstar |
| NORAD ID | 25652 |
| Date fetched |
Epoch osculation |
Inc. [°] |
Ecc. | RA asc node [hr] |
Arg Peri. [°] |
Mean anom [°] |
Mean motion [rev/day] |
Abs. mag |
| Date fetched |
Epoch osculation |
Inc. [°] |
Ecc. | RA asc node [hr] |
Arg Peri. [°] |
Mean anom [°] |
Mean motion [rev/day] |
Abs. mag |
| 2026 May 03 17:57 | 2026 Apr 30 13:46:59 | 52.0009 | 0.00025 | 19.8316 | 150.4349 | 252.7200 | 12.62465 | 5.743 |
| 2026 May 02 17:57 | 2026 Apr 30 13:46:59 | 52.0009 | 0.00025 | 19.8316 | 150.4349 | 252.7200 | 12.62465 | 5.743 |
| 2026 May 01 17:56 | 2026 Apr 30 13:46:59 | 52.0009 | 0.00025 | 19.8316 | 150.4349 | 252.7200 | 12.62465 | 5.743 |
| 2026 Apr 30 17:56 | 2026 Apr 30 13:46:59 | 52.0009 | 0.00025 | 19.8316 | 150.4349 | 252.7200 | 12.62465 | 5.743 |
| 2026 Apr 29 17:57 | 2026 Apr 24 06:26:50 | 52.0013 | 0.00025 | 21.1119 | 137.2430 | 252.7200 | 12.62465 | 5.743 |
| 2026 Apr 28 17:56 | 2026 Apr 24 06:26:50 | 52.0013 | 0.00025 | 21.1119 | 137.2430 | 252.7200 | 12.62465 | 5.743 |
| 2026 Apr 27 17:58 | 2026 Apr 24 06:26:50 | 52.0013 | 0.00025 | 21.1119 | 137.2430 | 252.7200 | 12.62465 | 5.743 |
| 2026 Apr 26 17:58 | 2026 Apr 24 06:26:50 | 52.0013 | 0.00025 | 21.1119 | 137.2430 | 252.7200 | 12.62465 | 5.743 |
| 2026 Apr 25 17:58 | 2026 Apr 24 06:26:50 | 52.0013 | 0.00025 | 21.1119 | 137.2430 | 252.7200 | 12.62465 | 5.743 |
| 2026 Apr 24 17:59 | 2026 Apr 24 06:26:50 | 52.0013 | 0.00025 | 21.1119 | 137.2430 | 252.7200 | 12.62465 | 5.743 |
| 2026 Apr 23 17:57 | 2026 Apr 19 13:30:44 | 52.0023 | 0.00025 | 22.0673 | 128.2524 | 252.7200 | 12.62465 | 5.743 |
| 2026 Apr 22 17:57 | 2026 Apr 19 13:30:44 | 52.0023 | 0.00025 | 22.0673 | 128.2524 | 252.7200 | 12.62465 | 5.743 |
| 2026 Apr 21 17:57 | 2026 Apr 19 13:30:44 | 52.0023 | 0.00025 | 22.0673 | 128.2524 | 252.7200 | 12.62465 | 5.743 |
| 2026 Apr 20 17:57 | 2026 Apr 19 13:30:44 | 52.0023 | 0.00025 | 22.0673 | 128.2524 | 252.7200 | 12.62465 | 5.743 |
| 2026 Apr 19 17:58 | 2026 Apr 19 13:30:44 | 52.0023 | 0.00025 | 22.0673 | 128.2524 | 252.7200 | 12.62465 | 5.743 |
| 2026 Apr 18 17:56 | 2026 Apr 14 10:49:59 | 52.0028 | 0.00025 | 23.1051 | 118.7839 | 252.7200 | 12.62465 | 5.743 |
| 2026 Apr 16 17:57 | 2026 Apr 14 10:49:59 | 52.0028 | 0.00025 | 23.1051 | 118.7839 | 252.7200 | 12.62465 | 5.743 |
| 2026 Apr 14 17:57 | 2026 Apr 14 10:49:59 | 52.0028 | 0.00025 | 23.1051 | 118.7839 | 252.7200 | 12.62465 | 5.743 |
| 2026 Apr 13 17:57 | 2026 Apr 13 02:24:27 | 52.0029 | 0.00025 | 23.3794 | 116.3900 | 252.7200 | 12.62465 | 5.743 |
| 2026 Apr 12 17:57 | 2026 Apr 12 11:20:10 | 52.0028 | 0.00025 | 23.5069 | 115.1301 | 252.7200 | 12.62465 | 5.743 |
| 2026 Apr 11 17:57 | 2026 Apr 11 10:37:34 | 52.0031 | 0.00025 | 23.7159 | 113.3482 | 252.7200 | 12.62465 | 5.743 |
| 2026 Apr 10 17:58 | 2026 Apr 10 02:09:38 | 52.0033 | 0.00025 | 23.9906 | 111.0598 | 252.7200 | 12.62465 | 5.743 |
| 2026 Apr 09 18:01 | 2026 Apr 09 03:24:07 | 52.0033 | 0.00024 | 0.1831 | 109.3046 | 252.7200 | 12.62465 | 5.743 |
| 2026 Apr 08 17:57 | 2026 Apr 08 04:41:18 | 52.0033 | 0.00025 | 0.3752 | 107.6796 | 252.7200 | 12.62465 | 5.743 |
| 2026 Apr 07 17:57 | 2026 Apr 07 03:53:36 | 52.0034 | 0.00024 | 0.5849 | 105.9310 | 252.7200 | 12.62465 | 5.743 |
| 2026 Apr 06 17:57 | 2026 Apr 06 05:11:13 | 52.0034 | 0.00024 | 0.7770 | 104.2955 | 252.7200 | 12.62465 | 5.743 |